createdAt,value
2023-05-21T00:00:14.251Z,16.00
2023-05-21T00:02:42.871Z,14.57
2023-05-21T00:05:14.762Z,16.57
2023-05-21T00:07:44.375Z,17.00
2023-05-21T00:10:12.486Z,16.80
2023-05-21T00:12:41.598Z,16.10
2023-05-21T00:15:10.281Z,16.90
2023-05-21T00:17:38.100Z,17.80
2023-05-21T00:20:07.434Z,17.73
2023-05-21T00:22:36.185Z,16.40
2023-05-21T00:25:05.910Z,15.80
2023-05-21T00:27:33.698Z,18.93
2023-05-21T00:30:01.459Z,19.70
2023-05-21T00:32:29.205Z,18.10
2023-05-21T00:34:58.215Z,18.57
2023-05-21T00:37:25.996Z,17.50
2023-05-21T00:39:53.863Z,18.70
2023-05-21T00:42:27.296Z,19.00
2023-05-21T00:44:55.182Z,18.57
2023-05-21T00:47:23.101Z,17.20
2023-05-21T00:49:53.204Z,18.80
2023-05-21T00:52:21.947Z,20.83
2023-05-21T00:54:51.851Z,19.83
2023-05-21T00:57:21.599Z,20.13
2023-05-21T00:59:53.169Z,18.57
2023-05-21T01:02:24.193Z,18.27
2023-05-21T01:04:52.877Z,19.77
2023-05-21T01:07:20.653Z,20.80
2023-05-21T01:09:48.680Z,19.50
2023-05-21T01:12:16.853Z,21.60
2023-05-21T01:14:44.956Z,19.90
2023-05-21T01:17:15.652Z,22.43
2023-05-21T01:19:45.345Z,19.57
2023-05-21T01:22:15.201Z,20.10
2023-05-21T01:24:48.166Z,20.10
2023-05-21T01:27:15.937Z,18.63
2023-05-21T01:29:43.790Z,18.43
2023-05-21T01:32:17.423Z,17.63
2023-05-21T01:34:51.275Z,21.60
2023-05-21T01:37:23.797Z,19.60
2023-05-21T01:39:56.984Z,17.80
2023-05-21T01:42:26.613Z,22.60
2023-05-21T01:44:57.139Z,19.90
2023-05-21T01:47:27.860Z,19.53
2023-05-21T01:49:55.937Z,17.53
2023-05-21T01:52:23.767Z,16.83
2023-05-21T01:54:54.412Z,18.77
2023-05-21T01:57:22.493Z,18.77
2023-05-21T01:59:50.433Z,18.30
2023-05-21T02:02:18.327Z,20.23
2023-05-21T02:04:46.440Z,18.30
2023-05-21T02:07:14.427Z,22.63
2023-05-21T02:09:42.232Z,22.40
2023-05-21T02:12:11.365Z,19.30
2023-05-21T02:14:39.614Z,19.10
2023-05-21T02:17:08.071Z,22.03
2023-05-21T02:19:35.938Z,20.93
2023-05-21T02:22:03.790Z,21.20
2023-05-21T02:24:31.563Z,21.37
2023-05-21T02:26:59.659Z,23.13
2023-05-21T02:29:28.760Z,20.30
2023-05-21T02:31:56.565Z,20.07
2023-05-21T02:34:24.701Z,20.00
2023-05-21T02:36:53.193Z,27.60
2023-05-21T02:39:21.053Z,20.43
2023-05-21T02:41:48.976Z,19.70
2023-05-21T02:44:18.941Z,21.63
2023-05-21T02:46:48.007Z,21.23
2023-05-21T02:49:15.807Z,17.57
2023-05-21T02:51:43.592Z,21.07
2023-05-21T02:54:11.355Z,21.20
2023-05-21T02:56:39.083Z,20.07
2023-05-21T02:59:06.951Z,20.33
2023-05-21T03:01:34.742Z,19.40
2023-05-21T03:04:04.003Z,19.50
2023-05-21T03:06:32.121Z,22.00
2023-05-21T03:08:59.849Z,19.63
2023-05-21T03:11:27.586Z,20.93
2023-05-21T03:13:55.563Z,19.20
2023-05-21T03:16:23.455Z,22.83
2023-05-21T03:18:51.268Z,23.10
2023-05-21T03:21:22.583Z,21.07
2023-05-21T03:23:51.356Z,25.10
2023-05-21T03:26:19.130Z,20.63
2023-05-21T03:28:46.860Z,24.03
2023-05-21T03:31:14.654Z,21.90
2023-05-21T03:33:42.410Z,19.93
2023-05-21T03:36:10.188Z,24.63
2023-05-21T03:38:39.271Z,21.53
2023-05-21T03:41:07.601Z,24.90
2023-05-21T03:43:35.555Z,24.80
2023-05-21T03:46:03.320Z,22.57
2023-05-21T03:48:31.116Z,24.47
2023-05-21T03:50:58.929Z,29.70
2023-05-21T03:53:26.667Z,22.03
2023-05-21T03:55:55.984Z,26.90
2023-05-21T03:58:23.953Z,24.17
2023-05-21T04:00:51.849Z,24.47
2023-05-21T04:03:19.765Z,26.23
2023-05-21T04:05:48.618Z,25.17
2023-05-21T04:08:17.045Z,24.97
2023-05-21T04:10:44.924Z,26.23
2023-05-21T04:13:14.197Z,25.57
2023-05-21T04:15:43.591Z,24.80
2023-05-21T04:18:13.535Z,25.73
2023-05-21T04:20:41.290Z,25.60
2023-05-21T04:23:09.345Z,26.30
2023-05-21T04:25:38.578Z,23.77
2023-05-21T04:28:06.328Z,26.77
2023-05-21T04:30:36.167Z,24.67
2023-05-21T04:33:04.624Z,21.33
2023-05-21T04:35:32.403Z,26.47
2023-05-21T04:40:28.010Z,26.10
2023-05-21T04:42:55.763Z,26.60
2023-05-21T04:45:24.532Z,25.67
2023-05-21T04:47:53.731Z,26.63
2023-05-21T04:50:21.610Z,27.33
2023-05-21T04:52:49.339Z,32.70
2023-05-21T04:55:19.064Z,28.17
2023-05-21T04:57:46.847Z,29.60
2023-05-21T05:00:16.364Z,28.53
2023-05-21T05:02:44.300Z,34.10
2023-05-21T05:05:13.437Z,28.87
2023-05-21T05:07:41.563Z,29.60
2023-05-21T05:10:10.079Z,30.20
2023-05-21T05:12:37.928Z,32.40
2023-05-21T05:15:06.167Z,32.73
2023-05-21T05:17:34.418Z,29.37
2023-05-21T05:20:02.449Z,30.00
2023-05-21T05:22:31.561Z,29.60
2023-05-21T05:24:59.294Z,36.07
2023-05-21T05:27:27.048Z,30.20
2023-05-21T05:29:54.804Z,30.80
2023-05-21T05:32:22.656Z,26.90
2023-05-21T05:34:50.652Z,31.60
2023-05-21T05:37:18.431Z,32.00
2023-05-21T05:39:47.514Z,33.90
2023-05-21T05:42:15.369Z,32.77
2023-05-21T05:44:43.138Z,33.87
2023-05-21T05:47:10.962Z,28.63
2023-05-21T05:49:38.760Z,29.23
2023-05-21T05:52:07.277Z,29.67
2023-05-21T05:54:35.110Z,31.60
2023-05-21T05:57:04.349Z,33.07
2023-05-21T05:59:33.756Z,30.00
2023-05-21T06:02:01.611Z,28.60
2023-05-21T06:04:30.106Z,29.83
2023-05-21T06:06:58.496Z,31.10
2023-05-21T06:09:26.410Z,29.70
2023-05-21T06:11:54.227Z,26.13
2023-05-21T06:14:23.333Z,29.27
2023-05-21T06:16:51.159Z,29.97
2023-05-21T06:19:19.246Z,29.93
2023-05-21T06:21:47.084Z,29.93
2023-05-21T06:24:14.885Z,29.13
2023-05-21T06:26:42.858Z,29.47
2023-05-21T06:29:10.622Z,29.13
2023-05-21T06:31:39.794Z,27.20
2023-05-21T06:34:07.649Z,29.77
2023-05-21T06:36:35.532Z,29.40
2023-05-21T06:39:03.407Z,28.10
2023-05-21T06:41:31.260Z,30.40
2023-05-21T06:43:59.035Z,38.57
2023-05-21T06:46:26.908Z,27.67
2023-05-21T06:48:56.128Z,29.40
2023-05-21T06:51:23.943Z,30.50
2023-05-21T06:53:51.931Z,33.00
2023-05-21T06:56:19.741Z,27.77
2023-05-21T06:58:47.455Z,28.83
2023-05-21T07:01:15.234Z,30.10
2023-05-21T07:03:43.161Z,27.87
2023-05-21T07:06:12.318Z,27.97
2023-05-21T07:08:40.058Z,26.63
2023-05-21T07:11:07.850Z,31.50
2023-05-21T07:13:36.370Z,30.30
2023-05-21T07:16:04.128Z,31.43
2023-05-21T07:18:32.546Z,30.27
2023-05-21T07:21:01.030Z,33.00
2023-05-21T07:23:30.138Z,28.57
2023-05-21T07:25:57.907Z,35.03
2023-05-21T07:28:25.781Z,28.67
2023-05-21T07:30:53.560Z,30.08
2023-05-21T07:33:22.656Z,29.53
2023-05-21T07:35:50.529Z,28.20
2023-05-21T07:38:18.332Z,29.63
2023-05-21T07:40:47.454Z,30.07
2023-05-21T07:43:15.218Z,36.43
2023-05-21T07:45:43.007Z,30.30
2023-05-21T07:48:11.711Z,30.53
2023-05-21T07:50:39.452Z,29.27
2023-05-21T07:53:07.572Z,27.63
2023-05-21T07:55:35.696Z,27.00
2023-05-21T07:58:04.999Z,36.87
2023-05-21T08:00:43.866Z,30.67
2023-05-21T08:03:12.832Z,31.40
2023-05-21T08:05:41.063Z,26.63
2023-05-21T08:08:08.849Z,29.10
2023-05-21T08:10:37.062Z,30.53
2023-05-21T08:13:06.289Z,26.97
2023-05-21T08:15:34.237Z,26.60
2023-05-21T08:18:02.201Z,27.27
2023-05-21T08:20:30.955Z,23.90
2023-05-21T08:23:00.106Z,27.50
2023-05-21T08:25:27.938Z,27.00
2023-05-21T08:27:55.894Z,26.43
2023-05-21T08:30:25.166Z,25.20
2023-05-21T08:32:53.008Z,26.30
2023-05-21T08:35:20.842Z,23.47
2023-05-21T08:37:48.598Z,26.90
2023-05-21T08:40:16.542Z,24.73
2023-05-21T08:42:46.044Z,24.47
2023-05-21T08:45:15.116Z,24.30
2023-05-21T08:47:46.517Z,27.87
2023-05-21T08:50:15.574Z,26.50
2023-05-21T08:52:43.585Z,25.47
2023-05-21T08:55:11.853Z,25.93
2023-05-21T08:57:44.311Z,24.87
2023-05-21T09:00:14.146Z,26.50
2023-05-21T09:02:43.956Z,29.47
2023-05-21T09:05:14.340Z,27.20
2023-05-21T09:07:51.081Z,26.97
2023-05-21T09:10:25.459Z,27.40
2023-05-21T09:12:53.365Z,24.00
2023-05-21T09:15:21.375Z,26.87
2023-05-21T09:17:49.226Z,28.13
2023-05-21T09:20:18.912Z,23.07
2023-05-21T09:22:48.405Z,25.77
2023-05-21T09:25:17.372Z,26.80
2023-05-21T09:27:45.355Z,25.37
2023-05-21T09:30:15.097Z,26.27
2023-05-21T09:32:43.831Z,26.73
2023-05-21T09:35:13.245Z,24.10
2023-05-21T09:37:45.016Z,23.23
2023-05-21T09:40:15.162Z,23.57
2023-05-21T09:42:44.336Z,26.43
2023-05-21T09:45:12.500Z,23.77
2023-05-21T09:47:44.330Z,24.27
2023-05-21T09:50:12.647Z,27.30
2023-05-21T09:52:42.347Z,21.47
2023-05-21T09:55:13.095Z,22.13
2023-05-21T09:57:45.014Z,24.13
2023-05-21T10:00:19.418Z,27.77
2023-05-21T10:02:48.419Z,23.40
2023-05-21T10:05:17.753Z,23.93
2023-05-21T10:07:51.349Z,22.60
2023-05-21T10:10:21.766Z,27.80
2023-05-21T10:12:55.169Z,24.70
2023-05-21T10:15:25.714Z,29.43
2023-05-21T10:17:54.019Z,23.10
2023-05-21T10:20:23.229Z,24.37
2023-05-21T10:22:54.010Z,26.50
2023-05-21T10:25:22.797Z,22.33
2023-05-21T10:27:50.721Z,25.40
2023-05-21T10:30:19.619Z,25.53
2023-05-21T10:32:49.781Z,23.77
2023-05-21T10:35:18.252Z,22.50
2023-05-21T10:37:46.615Z,23.17
2023-05-21T10:40:16.119Z,23.93
2023-05-21T10:43:31.584Z,21.97
2023-05-21T10:46:26.714Z,23.03
2023-05-21T10:49:06.543Z,20.57
2023-05-21T10:51:46.251Z,20.53
2023-05-21T10:54:33.488Z,20.93
2023-05-21T10:57:15.095Z,23.00
2023-05-21T10:59:44.726Z,20.70
2023-05-21T11:02:14.727Z,22.70
2023-05-21T11:04:45.628Z,21.33
2023-05-21T11:07:13.872Z,20.87
2023-05-21T11:09:41.671Z,22.67
2023-05-21T11:12:12.843Z,21.10
2023-05-21T11:14:43.444Z,21.57
2023-05-21T11:17:14.098Z,22.37
2023-05-21T11:19:43.594Z,21.73
2023-05-21T11:22:22.174Z,21.17
2023-05-21T11:24:51.322Z,25.10
2023-05-21T11:27:34.480Z,22.40
2023-05-21T11:30:05.728Z,24.37
2023-05-21T11:32:33.626Z,23.30
2023-05-21T11:35:09.856Z,22.50
2023-05-21T11:37:41.486Z,23.60
2023-05-21T11:40:21.002Z,23.20
2023-05-21T11:42:53.609Z,21.03
2023-05-21T11:45:22.641Z,23.80
2023-05-21T11:47:51.960Z,21.43
2023-05-21T11:50:21.430Z,23.58
2023-05-21T11:52:50.940Z,22.20
2023-05-21T11:55:23.334Z,21.70
2023-05-21T11:57:55.068Z,20.40
2023-05-21T12:00:23.098Z,22.70
2023-05-21T12:02:52.856Z,21.73
2023-05-21T12:05:22.816Z,22.60
2023-05-21T12:07:51.055Z,24.90
2023-05-21T12:10:23.333Z,22.90
2023-05-21T12:12:56.330Z,23.17
2023-05-21T12:15:26.907Z,24.10
2023-05-21T12:17:55.985Z,24.27
2023-05-21T12:20:28.219Z,22.10
2023-05-21T12:22:57.819Z,22.57
2023-05-21T12:25:25.750Z,22.33
2023-05-21T12:27:57.899Z,19.83
2023-05-21T12:30:26.428Z,20.33
2023-05-21T12:32:54.293Z,20.53
2023-05-21T12:35:23.413Z,19.83
2023-05-21T12:37:53.276Z,19.97
2023-05-21T12:40:22.097Z,17.37
2023-05-21T12:42:50.920Z,16.70
2023-05-21T12:45:21.062Z,25.53
2023-05-21T12:47:50.513Z,20.57
2023-05-21T12:50:21.922Z,16.13
2023-05-21T12:52:49.875Z,17.73
2023-05-21T12:55:19.516Z,19.70
2023-05-21T12:57:47.334Z,21.53
2023-05-21T13:00:15.401Z,17.40
2023-05-21T13:02:45.779Z,19.00
2023-05-21T13:05:17.527Z,16.70
2023-05-21T13:07:47.140Z,17.20
2023-05-21T13:10:17.137Z,20.33
2023-05-21T13:12:46.455Z,15.83
2023-05-21T13:15:14.284Z,14.00
2023-05-21T13:17:42.085Z,18.60
2023-05-21T13:20:12.229Z,17.47
2023-05-21T13:22:42.686Z,16.83
2023-05-21T13:25:11.642Z,17.90
2023-05-21T13:27:39.783Z,14.10
2023-05-21T13:30:11.561Z,14.23
2023-05-21T13:32:40.616Z,15.53
2023-05-21T13:35:09.926Z,19.23
2023-05-21T13:37:37.909Z,15.73
2023-05-21T13:40:07.206Z,18.60
2023-05-21T13:42:35.247Z,14.43
2023-05-21T13:45:03.136Z,15.30
2023-05-21T13:47:33.676Z,14.63
2023-05-21T13:50:02.068Z,19.77
2023-05-21T13:52:32.263Z,14.30
2023-05-21T13:55:00.180Z,15.40
2023-05-21T13:57:30.637Z,16.23
2023-05-21T13:59:58.718Z,22.60
2023-05-21T14:02:26.695Z,16.33
2023-05-21T14:04:55.942Z,14.43
2023-05-21T14:07:23.788Z,20.13
2023-05-21T14:09:52.576Z,16.43
2023-05-21T14:12:20.616Z,14.97
2023-05-21T14:14:49.799Z,14.70
2023-05-21T14:17:17.653Z,15.00
2023-05-21T14:19:45.432Z,14.13
2023-05-21T14:22:14.713Z,17.13
2023-05-21T14:24:42.468Z,16.33
2023-05-21T14:27:10.320Z,14.73
2023-05-21T14:29:38.078Z,14.53
2023-05-21T14:32:06.496Z,15.57
2023-05-21T14:34:34.342Z,16.97
2023-05-21T14:37:02.143Z,14.70
2023-05-21T14:39:31.393Z,14.40
2023-05-21T14:41:59.184Z,14.50
2023-05-21T14:44:27.736Z,14.40
2023-05-21T14:46:55.499Z,16.80
2023-05-21T14:49:23.336Z,18.50
2023-05-21T14:51:51.446Z,15.17
2023-05-21T14:54:20.190Z,16.63
2023-05-21T14:56:49.353Z,17.50
2023-05-21T14:59:17.137Z,16.27
2023-05-21T15:01:45.058Z,16.50
2023-05-21T15:04:12.976Z,15.13
2023-05-21T15:06:40.891Z,17.77
2023-05-21T15:09:08.720Z,16.00
2023-05-21T15:11:36.879Z,18.87
2023-05-21T15:14:06.039Z,16.70
2023-05-21T15:16:33.997Z,15.17
2023-05-21T15:19:01.941Z,16.70
2023-05-21T15:21:29.899Z,16.10
2023-05-21T15:23:57.666Z,14.90
2023-05-21T15:26:26.860Z,17.60
2023-05-21T15:28:54.807Z,20.90
2023-05-21T15:31:23.913Z,16.07
2023-05-21T15:33:51.682Z,19.07
2023-05-21T15:36:19.465Z,14.63
2023-05-21T15:38:47.227Z,15.60
2023-05-21T15:41:15.081Z,17.27
2023-05-21T15:43:43.094Z,20.23
2023-05-21T15:46:12.552Z,15.87
2023-05-21T15:48:41.755Z,16.90
2023-05-21T15:51:09.511Z,15.63
2023-05-21T15:53:37.266Z,13.73
2023-05-21T15:56:05.154Z,15.90
2023-05-21T15:58:32.965Z,17.20
2023-05-21T16:01:00.798Z,14.93
2023-05-21T16:03:28.725Z,16.93
2023-05-21T16:05:58.211Z,17.40
2023-05-21T16:08:26.141Z,14.53
2023-05-21T16:10:54.236Z,17.07
2023-05-21T16:13:22.052Z,18.10
2023-05-21T16:15:50.154Z,15.83
2023-05-21T16:18:17.943Z,15.60
2023-05-21T16:20:45.818Z,14.00
2023-05-21T16:23:15.028Z,15.67
2023-05-21T16:25:42.802Z,14.97
2023-05-21T16:28:12.098Z,17.23
2023-05-21T16:30:39.884Z,16.53
2023-05-21T16:33:08.340Z,18.33
2023-05-21T16:35:38.890Z,16.43
2023-05-21T16:38:06.811Z,16.93
2023-05-21T16:40:36.501Z,14.63
2023-05-21T16:43:04.305Z,16.83
2023-05-21T16:45:39.921Z,16.30
2023-05-21T16:48:08.242Z,18.50
2023-05-21T16:50:36.189Z,16.87
2023-05-21T16:53:06.012Z,15.47
2023-05-21T16:55:37.163Z,16.50
2023-05-21T16:58:06.354Z,17.23
2023-05-21T17:00:35.046Z,21.80
2023-05-21T17:03:03.001Z,17.97
2023-05-21T17:05:30.799Z,18.20
2023-05-21T17:07:58.666Z,15.07
2023-05-21T17:10:26.458Z,19.53
2023-05-21T17:12:55.829Z,17.80
2023-05-21T17:15:24.970Z,21.27
2023-05-21T17:17:52.848Z,16.10
2023-05-21T17:20:20.735Z,17.87
2023-05-21T17:22:48.680Z,16.40
2023-05-21T17:25:16.545Z,16.80
2023-05-21T17:27:44.299Z,16.07
2023-05-21T17:30:14.084Z,18.60
2023-05-21T17:32:41.935Z,16.13
2023-05-21T17:35:10.301Z,15.57
2023-05-21T17:37:38.141Z,17.23
2023-05-21T17:40:07.146Z,14.87
2023-05-21T17:42:34.937Z,16.10
2023-05-21T17:45:02.770Z,17.27
2023-05-21T17:47:33.752Z,15.00
2023-05-21T17:50:01.591Z,16.10
2023-05-21T17:52:29.390Z,17.37
2023-05-21T17:54:57.177Z,17.20
2023-05-21T17:57:25.085Z,15.57
2023-05-21T17:59:52.872Z,19.33
2023-05-21T18:02:20.694Z,17.30
2023-05-21T18:04:49.852Z,16.17
2023-05-21T18:07:17.719Z,15.47
2023-05-21T18:09:45.608Z,16.27
2023-05-21T18:12:13.455Z,20.10
2023-05-21T18:14:41.325Z,16.47
2023-05-21T18:17:09.301Z,16.43
2023-05-21T18:19:37.210Z,24.57
2023-05-21T18:22:06.669Z,16.60
2023-05-21T18:24:36.358Z,17.40
2023-05-21T18:27:04.248Z,15.20
2023-05-21T18:29:32.003Z,17.80
2023-05-21T18:31:59.839Z,15.20
2023-05-21T18:34:27.653Z,16.07
2023-05-21T18:36:58.726Z,23.97
2023-05-21T18:39:28.065Z,19.10
2023-05-21T18:42:11.336Z,15.00
2023-05-21T18:44:41.527Z,16.63
2023-05-21T18:47:09.310Z,20.10
2023-05-21T18:49:37.115Z,16.37
2023-05-21T18:52:06.008Z,15.93
2023-05-21T18:54:35.421Z,14.60
2023-05-21T18:57:03.212Z,16.47
2023-05-21T18:59:31.262Z,18.40
2023-05-21T19:01:59.115Z,16.63
2023-05-21T19:04:27.341Z,19.10
2023-05-21T19:06:55.269Z,20.53
2023-05-21T19:09:23.061Z,18.17
2023-05-21T19:11:52.376Z,19.07
2023-05-21T19:14:22.493Z,18.30
2023-05-21T19:16:50.858Z,18.00
2023-05-21T19:19:18.683Z,16.60
2023-05-21T19:21:46.723Z,17.83
2023-05-21T19:24:14.934Z,18.80
2023-05-21T19:26:42.690Z,22.13
2023-05-21T19:29:11.927Z,16.87
2023-05-21T19:31:39.703Z,18.90
2023-05-21T19:34:10.477Z,18.13
2023-05-21T19:36:52.241Z,19.53
2023-05-21T19:39:21.488Z,17.73
2023-05-21T19:41:49.379Z,21.80
2023-05-21T19:44:18.569Z,20.90
2023-05-21T19:46:46.318Z,24.10
2023-05-21T19:49:15.817Z,18.70
2023-05-21T19:51:43.682Z,20.03
2023-05-21T19:54:11.492Z,22.20
2023-05-21T19:56:39.387Z,22.77
2023-05-21T19:59:07.319Z,18.17
2023-05-21T20:01:39.206Z,19.60
2023-05-21T20:04:07.263Z,19.23
2023-05-21T20:06:35.074Z,20.43
2023-05-21T20:09:02.957Z,20.00
2023-05-21T20:11:30.791Z,18.70
2023-05-21T20:13:58.599Z,19.90
2023-05-21T20:16:26.465Z,19.90
2023-05-21T20:18:56.745Z,19.30
2023-05-21T20:21:25.776Z,18.43
2023-05-21T20:23:54.652Z,20.60
2023-05-21T20:26:23.119Z,20.00
2023-05-21T20:28:50.960Z,18.70
2023-05-21T20:31:18.787Z,21.63
2023-05-21T20:33:46.676Z,19.50
2023-05-21T20:36:17.632Z,19.73
2023-05-21T20:38:47.145Z,20.63
2023-05-21T20:41:15.114Z,19.47
2023-05-21T20:43:45.318Z,17.90
2023-05-21T20:46:13.497Z,21.70
2023-05-21T20:48:41.747Z,20.80
2023-05-21T20:51:09.619Z,20.30
2023-05-21T20:53:38.697Z,20.90
2023-05-21T20:56:08.465Z,21.77
2023-05-21T20:58:36.285Z,21.17
2023-05-21T21:01:04.209Z,21.80
2023-05-21T21:03:34.203Z,19.80
2023-05-21T21:06:03.098Z,18.90
2023-05-21T21:08:30.992Z,21.90
2023-05-21T21:11:00.174Z,20.20
2023-05-21T21:13:27.929Z,19.33
2023-05-21T21:15:55.758Z,19.80
2023-05-21T21:18:23.596Z,17.80
2023-05-21T21:20:51.571Z,20.80
2023-05-21T21:23:19.365Z,19.60
2023-05-21T21:25:47.533Z,19.60
2023-05-21T21:28:16.742Z,18.27
2023-05-21T21:30:45.001Z,17.90
2023-05-21T21:33:14.282Z,18.67
2023-05-21T21:35:42.716Z,19.33
2023-05-21T21:38:10.479Z,19.73
2023-05-21T21:40:38.463Z,25.40
2023-05-21T21:43:06.370Z,22.00
2023-05-21T21:45:35.499Z,19.60
2023-05-21T21:48:03.367Z,20.77
2023-05-21T21:50:31.202Z,20.00
2023-05-21T21:52:59.890Z,16.00
2023-05-21T21:55:27.647Z,16.97
2023-05-21T21:57:55.752Z,21.17
2023-05-21T22:00:26.598Z,20.17
2023-05-21T22:02:56.614Z,20.70
2023-05-21T22:05:24.413Z,17.93
2023-05-21T22:07:52.561Z,19.53
2023-05-21T22:10:21.220Z,18.20
2023-05-21T22:12:49.069Z,20.60
2023-05-21T22:15:23.813Z,17.83
2023-05-21T22:17:52.212Z,20.00
2023-05-21T22:20:22.040Z,19.60
2023-05-21T22:22:50.384Z,19.97
2023-05-21T22:25:18.374Z,20.40
2023-05-21T22:27:46.164Z,27.30
2023-05-21T22:30:14.243Z,18.40
2023-05-21T22:32:42.192Z,21.33
2023-05-21T22:35:12.666Z,20.90
2023-05-21T22:37:41.772Z,26.40
2023-05-21T22:40:10.776Z,19.53
2023-05-21T22:42:39.200Z,21.60
2023-05-21T22:45:08.412Z,20.20
2023-05-21T22:47:39.525Z,21.07
2023-05-21T22:50:08.376Z,18.97
2023-05-21T22:52:36.120Z,20.50
2023-05-21T22:55:06.536Z,17.80
2023-05-21T22:57:37.294Z,20.47
2023-05-21T23:00:06.924Z,20.13
2023-05-21T23:02:34.799Z,18.93
2023-05-21T23:05:02.605Z,22.70
2023-05-21T23:07:30.381Z,19.90
2023-05-21T23:09:58.164Z,22.73
2023-05-21T23:12:27.276Z,17.90
2023-05-21T23:14:55.050Z,17.40
2023-05-21T23:17:23.450Z,19.03
2023-05-21T23:19:52.474Z,18.90
2023-05-21T23:22:20.446Z,15.63
2023-05-21T23:24:48.689Z,17.63
2023-05-21T23:27:16.623Z,18.93
2023-05-21T23:29:45.699Z,16.17
2023-05-21T23:32:13.530Z,15.60
2023-05-21T23:34:41.916Z,14.60
2023-05-21T23:37:09.745Z,16.30
2023-05-21T23:39:37.646Z,15.30
2023-05-21T23:42:06.079Z,17.23
2023-05-21T23:44:34.125Z,15.63
2023-05-21T23:47:03.279Z,15.00
2023-05-21T23:49:31.073Z,15.10
2023-05-21T23:51:59.644Z,17.90
2023-05-21T23:54:27.379Z,14.80
2023-05-21T23:56:55.154Z,19.70
2023-05-21T23:59:22.944Z,18.97
